Time,TemperatureF,DewpointF,PressureIn,WindDirection,WindDirectionDegrees,WindSpeedMPH,WindSpeedGustMPH,Humidity,HourlyPrecipIn,Conditions,Clouds,dailyrainin,SoftwareType,DateUTC
2013-02-08 00:01:00,38.0,2.0,-100.00,SW,230,9.0,18.0,21,0.00,,,-99.99,,2013-02-08 00:01:00,
2013-02-08 00:11:00,38.0,2.0,-100.00,WSW,245,9.0,14.0,21,0.00,,,-99.99,,2013-02-08 00:11:00,
2013-02-08 00:21:00,36.0,0.0,-100.00,SW,230,9.0,16.0,21,0.00,,,-99.99,,2013-02-08 00:21:00,
2013-02-08 00:32:00,35.0,0.0,-100.00,SW,235,9.0,16.0,21,0.00,,,-99.99,,2013-02-08 00:32:00,
2013-02-08 00:41:00,35.0,-1.0,-100.00,SW,225,4.0,17.0,21,0.00,,,-99.99,,2013-02-08 00:41:00,
2013-02-08 00:52:00,35.0,-1.0,-100.00,SW,235,7.0,13.0,21,0.00,,,-99.99,,2013-02-08 00:52:00,
2013-02-08 01:01:00,35.0,-1.0,-100.00,SW,220,6.0,12.0,21,0.00,,,-99.99,,2013-02-08 01:01:00,
2013-02-08 01:11:00,34.0,-1.0,-100.00,North,355,0.0,12.0,21,0.00,,,-99.99,,2013-02-08 01:11:00,
2013-02-08 01:21:00,34.0,-1.0,-100.00,SW,225,4.0,8.0,21,0.00,,,-99.99,,2013-02-08 01:21:00,
2013-02-08 01:31:00,34.0,-1.0,-100.00,SW,230,11.0,16.0,21,0.00,,,-99.99,,2013-02-08 01:31:00,
2013-02-08 01:41:00,34.0,-1.0,-100.00,SW,230,6.0,17.0,21,0.00,,,-99.99,,2013-02-08 01:41:00,
2013-02-08 01:51:00,33.0,-3.0,-100.00,ENE,65,4.0,9.0,21,0.00,,,-99.99,,2013-02-08 01:51:00,
2013-02-08 02:01:00,32.0,-3.0,-100.00,NE,50,8.0,12.0,21,0.00,,,-99.99,,2013-02-08 02:01:00,
2013-02-08 02:11:00,31.0,-2.0,-100.00,NNE,30,5.0,10.0,23,0.00,,,-99.99,,2013-02-08 02:11:00,
2013-02-08 02:21:00,31.0,-2.0,-100.00,ESE,120,2.0,9.0,23,0.00,,,-99.99,,2013-02-08 02:21:00,
2013-02-08 02:32:00,31.0,-2.0,-100.00,ENE,75,1.0,6.0,23,0.00,,,-99.99,,2013-02-08 02:32:00,
2013-02-08 02:42:00,28.0,-4.0,-100.00,WNW,295,1.0,4.0,23,0.00,,,-99.99,,2013-02-08 02:42:00,
2013-02-08 02:52:00,29.0,-4.0,-100.00,SW,220,3.0,4.0,23,0.00,,,-99.99,,2013-02-08 02:52:00,
2013-02-08 03:01:00,29.0,-3.0,-100.00,SW,225,3.0,6.0,24,0.00,,,-99.99,,2013-02-08 03:01:00,
2013-02-08 03:12:00,29.0,-3.0,-100.00,SW,220,3.0,4.0,24,0.00,,,-99.99,,2013-02-08 03:12:00,
2013-02-08 03:22:00,27.0,-4.0,-100.00,NE,45,3.0,5.0,24,0.00,,,-99.99,,2013-02-08 03:22:00,
2013-02-08 03:32:00,28.0,-3.0,-100.00,ENE,70,1.0,6.0,24,0.00,,,-99.99,,2013-02-08 03:32:00,
2013-02-08 03:41:00,27.0,-4.0,-100.00,NE,55,2.0,5.0,25,0.00,,,-99.99,,2013-02-08 03:41:00,
2013-02-08 03:51:00,26.0,-4.0,-100.00,ENE,65,1.0,4.0,26,0.00,,,-99.99,,2013-02-08 03:51:00,
2013-02-08 04:01:00,29.0,-1.0,-100.00,SW,225,6.0,12.0,26,0.00,,,-99.99,,2013-02-08 04:01:00,
2013-02-08 04:11:00,31.0,0.0,-100.00,SW,220,10.0,14.0,25,0.00,,,-99.99,,2013-02-08 04:11:00,
2013-02-08 04:21:00,32.0,-1.0,-100.00,SW,220,13.0,21.0,24,0.00,,,-99.99,,2013-02-08 04:21:00,
2013-02-08 04:32:00,31.0,-1.0,-100.00,SW,225,15.0,19.0,24,0.00,,,-99.99,,2013-02-08 04:32:00,
2013-02-08 04:41:00,32.0,0.0,-100.00,SW,225,17.0,22.0,24,0.00,,,-99.99,,2013-02-08 04:41:00,
2013-02-08 04:51:00,32.0,-1.0,-100.00,SW,230,17.0,21.0,24,0.00,,,-99.99,,2013-02-08 04:51:00,
2013-02-08 05:02:00,31.0,-1.0,-100.00,SSW,200,14.0,21.0,24,0.00,,,-99.99,,2013-02-08 05:02:00,
2013-02-08 05:11:00,32.0,-1.0,-100.00,SW,225,15.0,19.0,24,0.00,,,-99.99,,2013-02-08 05:11:00,
2013-02-08 05:22:00,32.0,-1.0,-100.00,SW,225,17.0,24.0,23,0.00,,,-99.99,,2013-02-08 05:22:00,
2013-02-08 05:32:00,33.0,-1.0,-100.00,SW,220,17.0,22.0,23,0.00,,,-99.99,,2013-02-08 05:32:00,
2013-02-08 05:41:00,33.0,-1.0,-100.00,SSW,205,17.0,22.0,23,0.00,,,-99.99,,2013-02-08 05:41:00,
2013-02-08 05:52:00,32.0,-1.0,-100.00,SW,220,17.0,24.0,23,0.00,,,-99.99,,2013-02-08 05:52:00,
2013-02-08 06:01:00,31.0,-2.0,-100.00,SW,225,14.0,19.0,23,0.00,,,-99.99,,2013-02-08 06:01:00,
2013-02-08 06:11:00,32.0,-1.0,-100.00,SW,225,14.0,17.0,24,0.00,,,-99.99,,2013-02-08 06:11:00,
2013-02-08 06:21:00,30.0,-2.0,-100.00,SW,225,8.0,11.0,24,0.00,,,-99.99,,2013-02-08 06:21:00,
2013-02-08 06:31:00,30.0,-2.0,-100.00,SW,225,6.0,10.0,24,0.00,,,-99.99,,2013-02-08 06:31:00,
2013-02-08 06:51:00,26.0,-5.0,-100.00,SW,220,5.0,12.0,25,0.00,,,-99.99,,2013-02-08 06:51:00,
2013-02-08 07:01:00,23.0,-6.0,-100.00,SW,215,7.0,9.0,26,0.00,,,-99.99,,2013-02-08 07:01:00,
2013-02-08 07:11:00,24.0,-5.0,-100.00,SW,225,6.0,11.0,27,0.00,,,-99.99,,2013-02-08 07:11:00,
2013-02-08 07:21:00,26.0,-3.0,-100.00,WSW,255,9.0,14.0,27,0.00,,,-99.99,,2013-02-08 07:21:00,
2013-02-08 07:32:00,31.0,0.0,-100.00,West,280,9.0,18.0,26,0.00,,,-99.99,,2013-02-08 07:32:00,
2013-02-08 07:42:00,31.0,0.0,-100.00,WNW,285,9.0,12.0,25,0.00,,,-99.99,,2013-02-08 07:42:00,
2013-02-08 07:51:00,29.0,-1.0,-100.00,WNW,285,9.0,12.0,26,0.00,,,-99.99,,2013-02-08 07:51:00,
2013-02-08 08:01:00,24.0,-5.0,-100.00,SW,225,3.0,13.0,27,0.00,,,-99.99,,2013-02-08 08:01:00,
2013-02-08 08:11:00,23.0,-5.0,-100.00,NE,40,6.0,9.0,28,0.00,,,-99.99,,2013-02-08 08:11:00,
2013-02-08 08:21:00,23.0,-4.0,-100.00,NE,45,4.0,9.0,29,0.00,,,-99.99,,2013-02-08 08:21:00,
2013-02-08 08:32:00,22.0,-4.0,-100.00,NE,50,4.0,5.0,30,0.00,,,-99.99,,2013-02-08 08:32:00,
2013-02-08 08:41:00,20.0,-5.0,-100.00,ESE,120,0.0,4.0,31,0.00,,,-99.99,,2013-02-08 08:41:00,
2013-02-08 08:52:00,23.0,-3.0,-100.00,NNE,30,1.0,2.0,32,0.00,,,-99.99,,2013-02-08 08:52:00,
2013-02-08 09:03:00,24.0,-1.0,-100.00,NE,45,0.0,3.0,32,0.00,,,-99.99,,2013-02-08 09:03:00,
2013-02-08 09:21:00,25.0,-1.0,-100.00,NW,315,1.0,4.0,31,0.00,,,-99.99,,2013-02-08 09:21:00,
2013-02-08 09:32:00,23.0,-2.0,-100.00,NW,305,3.0,6.0,32,0.00,,,-99.99,,2013-02-08 09:32:00,
2013-02-08 09:41:00,20.0,-3.0,-100.00,SSW,210,1.0,4.0,35,0.00,,,-99.99,,2013-02-08 09:41:00,
2013-02-08 09:42:00,21.0,-3.0,-100.00,SW,215,4.0,6.0,33,0.00,,,-99.99,,2013-02-08 09:42:00,
2013-02-08 09:51:00,20.0,-4.0,-100.00,SW,235,2.0,4.0,34,0.00,,,-99.99,,2013-02-08 09:51:00,
2013-02-08 10:01:00,20.0,-3.0,-100.00,SSW,210,1.0,4.0,35,0.00,,,-99.99,,2013-02-08 10:01:00,
2013-02-08 10:11:00,20.0,-3.0,-100.00,SSW,210,1.0,4.0,35,0.00,,,-99.99,,2013-02-08 10:11:00,
2013-02-08 10:22:00,20.0,-3.0,-100.00,SSW,210,1.0,4.0,35,0.00,,,-99.99,,2013-02-08 10:22:00,
2013-02-08 10:31:00,20.0,-3.0,-100.00,SSW,210,1.0,4.0,35,0.00,,,-99.99,,2013-02-08 10:31:00,
2013-02-08 14:52:00,28.0,13.0,-100.00,NE,45,1.0,4.0,54,0.00,,,-99.99,,2013-02-08 14:52:00,
2013-02-08 15:02:00,25.0,12.0,-100.00,WNW,295,2.0,6.0,56,0.00,,,-99.99,,2013-02-08 15:02:00,
2013-02-08 15:11:00,25.0,11.0,-100.00,SSE,155,1.0,6.0,56,0.00,,,-99.99,,2013-02-08 15:11:00,
2013-02-08 15:22:00,25.0,12.0,-100.00,WSW,245,2.0,3.0,58,0.00,,,-99.99,,2013-02-08 15:22:00,
2013-02-08 15:32:00,27.0,14.0,-100.00,SE,130,1.0,3.0,56,0.00,,,-99.99,,2013-02-08 15:32:00,
2013-02-08 15:42:00,27.0,14.0,-100.00,SW,235,1.0,4.0,56,0.00,,,-99.99,,2013-02-08 15:42:00,
2013-02-08 15:52:00,29.0,15.0,-100.00,East,90,0.0,3.0,55,0.00,,,-99.99,,2013-02-08 15:52:00,
2013-02-08 16:01:00,29.0,15.0,-100.00,West,270,2.0,4.0,54,0.00,,,-99.99,,2013-02-08 16:01:00,
2013-02-08 16:11:00,29.0,15.0,-100.00,North,10,0.0,4.0,55,0.00,,,-99.99,,2013-02-08 16:11:00,
2013-02-08 16:21:00,30.0,16.0,-100.00,NE,55,6.0,9.0,54,0.00,,,-99.99,,2013-02-08 16:21:00,
2013-02-08 16:32:00,29.0,15.0,-100.00,ESE,110,3.0,9.0,54,0.00,,,-99.99,,2013-02-08 16:32:00,
2013-02-08 16:42:00,30.0,16.0,-100.00,NE,50,4.0,7.0,54,0.00,,,-99.99,,2013-02-08 16:42:00,
2013-02-08 16:51:00,30.0,16.0,-100.00,NE,40,2.0,4.0,54,0.00,,,-99.99,,2013-02-08 16:51:00,
2013-02-08 17:03:00,31.0,16.0,-100.00,NNE,20,1.0,4.0,54,0.00,,,-99.99,,2013-02-08 17:03:00,
2013-02-08 17:12:00,31.0,16.0,-100.00,NE,55,4.0,6.0,53,0.00,,,-99.99,,2013-02-08 17:12:00,
2013-02-08 17:22:00,32.0,17.0,-100.00,NE,50,6.0,8.0,53,0.00,,,-99.99,,2013-02-08 17:22:00,
2013-02-08 17:32:00,33.0,17.0,-100.00,NE,45,4.0,7.0,52,0.00,,,-99.99,,2013-02-08 17:32:00,
2013-02-08 17:42:00,33.0,18.0,-100.00,NE,45,4.0,7.0,52,0.00,,,-99.99,,2013-02-08 17:42:00,
2013-02-08 17:52:00,34.0,18.0,-100.00,South,170,2.0,6.0,51,0.00,,,-99.99,,2013-02-08 17:52:00,
2013-02-08 18:02:00,35.0,18.0,-100.00,East,100,2.0,3.0,50,0.00,,,-99.99,,2013-02-08 18:02:00,
2013-02-08 18:12:00,34.0,18.0,-100.00,East,100,3.0,4.0,50,0.00,,,-99.99,,2013-02-08 18:12:00,
2013-02-08 18:24:00,35.0,18.0,-100.00,ESE,105,1.0,4.0,49,0.00,,,-99.99,,2013-02-08 18:24:00,
2013-02-08 18:34:00,36.0,19.0,-100.00,ENE,70,2.0,6.0,48,0.00,,,-99.99,,2013-02-08 18:34:00,
2013-02-08 18:43:00,38.0,20.0,-100.00,ESE,105,4.0,6.0,47,0.00,,,-99.99,,2013-02-08 18:43:00,
2013-02-08 18:52:00,38.0,19.0,-100.00,East,90,4.0,6.0,46,0.00,,,-99.99,,2013-02-08 18:52:00,
2013-02-08 19:02:00,38.0,19.0,-100.00,East,85,3.0,4.0,45,0.00,,,-99.99,,2013-02-08 19:02:00,
2013-02-08 19:11:00,38.0,19.0,-100.00,NE,50,1.0,4.0,45,0.00,,,-99.99,,2013-02-08 19:11:00,
2013-02-08 19:22:00,39.0,19.0,-100.00,NE,55,4.0,5.0,45,0.00,,,-99.99,,2013-02-08 19:22:00,
2013-02-08 19:32:00,40.0,20.0,-100.00,ESE,110,3.0,4.0,44,0.00,,,-99.99,,2013-02-08 19:32:00,
2013-02-08 19:42:00,38.0,19.0,-100.00,East,85,6.0,7.0,44,0.00,,,-99.99,,2013-02-08 19:42:00,
2013-02-08 19:52:00,38.0,19.0,-100.00,NE,40,3.0,6.0,45,0.00,,,-99.99,,2013-02-08 19:52:00,
2013-02-08 20:02:00,39.0,20.0,-100.00,NE,45,3.0,6.0,45,0.00,,,-99.99,,2013-02-08 20:02:00,
2013-02-08 20:11:00,39.0,20.0,-100.00,NE,50,4.0,6.0,45,0.00,,,-99.99,,2013-02-08 20:11:00,
2013-02-08 20:21:00,40.0,21.0,-100.00,NNW,345,3.0,7.0,46,0.00,,,-99.99,,2013-02-08 20:21:00,
2013-02-08 20:32:00,40.0,21.0,-100.00,ENE,60,7.0,9.0,45,0.00,,,-99.99,,2013-02-08 20:32:00,
2013-02-08 20:41:00,42.0,22.0,-100.00,East,80,2.0,9.0,44,0.00,,,-99.99,,2013-02-08 20:41:00,
2013-02-08 20:52:00,42.0,22.0,-100.00,North,10,5.0,9.0,44,0.00,,,-99.99,,2013-02-08 20:52:00,
2013-02-08 21:02:00,40.0,21.0,-100.00,NE,40,5.0,9.0,44,0.00,,,-99.99,,2013-02-08 21:02:00,
2013-02-08 21:11:00,40.0,21.0,-100.00,NE,35,6.0,8.0,44,0.00,,,-99.99,,2013-02-08 21:11:00,
2013-02-08 21:22:00,39.0,20.0,-100.00,East,90,9.0,12.0,44,0.00,,,-99.99,,2013-02-08 21:22:00,
2013-02-08 21:32:00,40.0,20.0,-100.00,ENE,65,9.0,12.0,44,0.00,,,-99.99,,2013-02-08 21:32:00,
2013-02-08 21:42:00,42.0,21.0,-100.00,East,100,9.0,12.0,43,0.00,,,-99.99,,2013-02-08 21:42:00,
2013-02-08 21:52:00,42.0,20.0,-100.00,East,95,9.0,12.0,42,0.00,,,-99.99,,2013-02-08 21:52:00,
2013-02-08 22:02:00,41.0,20.0,-100.00,East,90,9.0,12.0,42,0.00,,,-99.99,,2013-02-08 22:02:00,
2013-02-08 22:11:00,40.0,19.0,-100.00,East,80,7.0,11.0,42,0.00,,,-99.99,,2013-02-08 22:11:00,
2013-02-08 22:21:00,40.0,19.0,-100.00,East,80,4.0,9.0,41,0.00,,,-99.99,,2013-02-08 22:21:00,
2013-02-08 22:32:00,41.0,19.0,-100.00,NE,40,4.0,6.0,40,0.00,,,-99.99,,2013-02-08 22:32:00,
2013-02-08 22:42:00,44.0,21.0,-100.00,ENE,60,3.0,7.0,39,0.00,,,-99.99,,2013-02-08 22:42:00,
2013-02-08 22:51:00,43.0,19.0,-100.00,NE,50,6.0,8.0,38,0.00,,,-99.99,,2013-02-08 22:51:00,
2013-02-08 23:01:00,44.0,20.0,-100.00,WSW,240,2.0,7.0,37,0.00,,,-99.99,,2013-02-08 23:01:00,
2013-02-08 23:11:00,44.0,20.0,-100.00,ENE,60,1.0,4.0,37,0.00,,,-99.99,,2013-02-08 23:11:00,
2013-02-08 23:21:00,42.0,19.0,-100.00,NNE,25,5.0,8.0,38,0.00,,,-99.99,,2013-02-08 23:21:00,
2013-02-08 23:32:00,40.0,18.0,-100.00,NE,40,7.0,12.0,40,0.00,,,-99.99,,2013-02-08 23:32:00,
2013-02-08 23:41:00,38.0,18.0,-100.00,NE,45,8.0,12.0,42,0.00,,,-99.99,,2013-02-08 23:41:00,
2013-02-08 23:52:00,37.0,17.0,-100.00,NE,45,5.0,11.0,44,0.00,,,-99.99,,2013-02-08 23:52:00,